createdAt,value
2023-05-09T00:02:35.081Z,100107.59
2023-05-09T00:07:38.042Z,100112.72
2023-05-09T00:12:42.173Z,100123.06
2023-05-09T00:17:46.380Z,100137.63
2023-05-09T00:22:49.237Z,100161.53
2023-05-09T00:27:52.005Z,100168.34
2023-05-09T00:32:54.983Z,100176.81
2023-05-09T00:37:57.763Z,100191.31
2023-05-09T00:43:00.916Z,100200.78
2023-05-09T00:48:03.975Z,100189.78
2023-05-09T00:53:06.985Z,100177.09
2023-05-09T00:58:09.977Z,100192.63
2023-05-09T01:03:13.003Z,100181.56
2023-05-09T01:08:30.453Z,100191.91
2023-05-09T01:13:33.251Z,100203.09
2023-05-09T01:18:41.362Z,100209.06
2023-05-09T01:23:53.180Z,100212.50
2023-05-09T01:29:19.271Z,100226.13
2023-05-09T01:34:23.405Z,100226.13
2023-05-09T01:39:27.698Z,100233.91
2023-05-09T01:44:36.338Z,100237.34
2023-05-09T01:49:40.777Z,100218.53
2023-05-09T01:54:45.503Z,100227.16
2023-05-09T01:59:49.472Z,100227.94
2023-05-09T02:04:54.127Z,100215.78
2023-05-09T02:09:59.965Z,100239.88
2023-05-09T02:15:02.461Z,100239.88
2023-05-09T02:20:10.344Z,100263.22
2023-05-09T02:25:15.979Z,100275.25
2023-05-09T02:30:24.752Z,100270.94
2023-05-09T02:35:29.606Z,100269.13
2023-05-09T02:40:36.724Z,100277.72
2023-05-09T02:45:39.617Z,100276.91
2023-05-09T02:50:43.840Z,100284.63
2023-05-09T02:55:46.956Z,100284.66
2023-05-09T03:00:49.793Z,100293.31
2023-05-09T03:05:52.677Z,100307.91
2023-05-09T03:10:55.726Z,100302.66
2023-05-09T03:16:00.214Z,100306.03
2023-05-09T03:21:03.323Z,100303.31
2023-05-09T03:26:07.401Z,100340.31
2023-05-09T03:31:12.036Z,100336.19
2023-05-09T03:36:15.140Z,100337.91
2023-05-09T03:41:19.791Z,100370.44
2023-05-09T03:46:24.141Z,100375.75
2023-05-09T03:51:27.435Z,100373.22
2023-05-09T03:56:32.276Z,100355.16
2023-05-09T04:01:35.408Z,100367.19
2023-05-09T04:06:39.723Z,100385.25
2023-05-09T04:11:45.240Z,100390.41
2023-05-09T04:16:49.351Z,100380.84
2023-05-09T04:21:52.554Z,100382.16
2023-05-09T04:26:55.524Z,100379.69
2023-05-09T04:32:02.521Z,100379.97
2023-05-09T04:37:06.010Z,100393.72
2023-05-09T04:42:11.213Z,100395.41
2023-05-09T04:47:14.147Z,100383.84
2023-05-09T04:52:18.188Z,100379.53
2023-05-09T04:57:21.513Z,100366.41
2023-05-09T05:02:30.058Z,100348.59
2023-05-09T05:07:32.870Z,100338.56
2023-05-09T05:12:36.187Z,100340.38
2023-05-09T05:17:40.571Z,100331.38
2023-05-09T05:22:45.283Z,100326.19
2023-05-09T05:27:48.636Z,100318.69
2023-05-09T05:32:52.041Z,100319.28
2023-05-09T05:37:56.775Z,100330.41
2023-05-09T05:43:01.114Z,100314.28
2023-05-09T05:48:04.750Z,100324.03
2023-05-09T05:53:08.326Z,100328.41
2023-05-09T05:58:11.393Z,100331.78
2023-05-09T06:03:15.066Z,100303.81
2023-05-09T06:08:23.256Z,100314.13
2023-05-09T06:13:26.409Z,100314.53
2023-05-09T06:18:38.121Z,100312.94
2023-05-09T06:23:56.985Z,100310.47
2023-05-09T06:29:04.835Z,100319.94
2023-05-09T06:34:08.105Z,100313.06
2023-05-09T06:39:11.010Z,100306.19
2023-05-09T06:44:13.878Z,100302.75
2023-05-09T06:49:16.689Z,100287.25
2023-05-09T06:54:19.655Z,100304.41
2023-05-09T06:59:22.567Z,100300.03
2023-05-09T07:04:25.386Z,100305.94
2023-05-09T07:09:31.070Z,100285.38
2023-05-09T07:14:33.850Z,100273.44
2023-05-09T07:19:36.637Z,100285.53
2023-05-09T07:24:39.553Z,100286.44
2023-05-09T07:29:42.406Z,100289.00
2023-05-09T07:34:45.722Z,100283.00
2023-05-09T07:39:48.688Z,100270.09
2023-05-09T07:44:51.616Z,100258.81
2023-05-09T07:49:54.338Z,100244.00
2023-05-09T07:54:57.287Z,100261.97
2023-05-09T08:00:00.046Z,100264.56
2023-05-09T08:05:03.740Z,100274.72
2023-05-09T08:10:07.300Z,100260.72
2023-05-09T08:15:10.553Z,100266.72
2023-05-09T08:20:13.718Z,100276.06
2023-05-09T08:25:18.624Z,100275.72
2023-05-09T08:30:21.528Z,100272.72
2023-05-09T08:35:25.067Z,100280.88
2023-05-09T08:40:27.857Z,100297.63
2023-05-09T08:45:31.260Z,100296.31
2023-05-09T08:50:35.914Z,100293.66
2023-05-09T08:55:39.113Z,100303.44
2023-05-09T09:00:42.196Z,100303.69
2023-05-09T09:05:45.737Z,100300.16
2023-05-09T09:10:48.776Z,100310.84
2023-05-09T09:15:53.790Z,100333.50
2023-05-09T09:21:07.009Z,100344.78
2023-05-09T09:26:10.044Z,100350.88
2023-05-09T09:31:44.765Z,100352.59
2023-05-09T09:36:48.812Z,100368.91
2023-05-09T09:41:51.679Z,100366.34
2023-05-09T09:46:56.248Z,100385.25
2023-05-09T09:51:59.722Z,100394.66
2023-05-09T09:57:03.119Z,100391.22
2023-05-09T10:02:09.974Z,100427.25
2023-05-09T10:07:15.122Z,100422.84
2023-05-09T10:12:20.593Z,100441.63
2023-05-09T10:17:24.027Z,100450.13
2023-05-09T10:22:27.060Z,100474.91
2023-05-09T10:27:32.699Z,100490.09
2023-05-09T10:32:52.887Z,100502.75
2023-05-09T10:37:59.339Z,100477.16
2023-05-09T10:43:02.193Z,100488.66
2023-05-09T10:48:09.238Z,100503.38
2023-05-09T10:53:14.532Z,100516.03
2023-05-09T10:58:29.347Z,100497.91
2023-05-09T11:03:53.975Z,100509.09
2023-05-09T11:08:56.823Z,100529.06
2023-05-09T11:13:59.590Z,100532.19
2023-05-09T11:19:02.536Z,100525.00
2023-05-09T11:24:17.533Z,100551.38
2023-05-09T11:29:20.339Z,100571.31
2023-05-09T11:34:23.197Z,100563.19
2023-05-09T11:39:26.165Z,100563.25
2023-05-09T11:44:31.248Z,100562.31
2023-05-09T11:49:34.064Z,100542.47
2023-05-09T11:54:39.629Z,100552.03
2023-05-09T11:59:42.485Z,100541.34
2023-05-09T12:04:45.247Z,100539.31
2023-05-09T12:09:50.149Z,100528.59
2023-05-09T12:14:53.719Z,100540.38
2023-05-09T12:20:00.276Z,100522.66
2023-05-09T12:25:07.720Z,100524.22
2023-05-09T12:30:11.192Z,100530.22
2023-05-09T12:35:14.381Z,100525.66
2023-05-09T12:40:17.475Z,100527.06
2023-05-09T12:45:20.676Z,100518.31
2023-05-09T12:50:23.473Z,100528.94
2023-05-09T12:55:26.226Z,100534.47
2023-05-09T13:00:29.358Z,100544.28
2023-05-09T13:05:32.613Z,100538.84
2023-05-09T13:10:35.704Z,100545.06
2023-05-09T13:15:38.583Z,100550.50
2023-05-09T13:20:41.455Z,100556.38
2023-05-09T13:25:44.649Z,100556.63
2023-05-09T13:30:47.620Z,100557.28
2023-05-09T13:35:51.347Z,100563.03
2023-05-09T13:40:54.256Z,100553.56
2023-05-09T13:45:57.164Z,100568.31
2023-05-09T13:51:01.623Z,100582.69
2023-05-09T13:56:04.656Z,100589.75
2023-05-09T14:01:07.949Z,100588.94
2023-05-09T14:06:12.978Z,100601.63
2023-05-09T14:11:16.985Z,100608.88
2023-05-09T14:16:21.496Z,100610.81
2023-05-09T14:21:24.294Z,100622.38
2023-05-09T14:26:27.266Z,100626.81
2023-05-09T14:31:30.185Z,100641.75
2023-05-09T14:36:33.474Z,100651.25
2023-05-09T14:41:36.672Z,100661.78
2023-05-09T14:46:39.541Z,100662.66
2023-05-09T14:51:42.386Z,100671.16
2023-05-09T14:56:45.372Z,100692.94
2023-05-09T15:01:48.757Z,100700.50
2023-05-09T15:06:51.514Z,100711.19
2023-05-09T15:11:55.302Z,100729.25
2023-05-09T15:17:01.669Z,100737.88
2023-05-09T15:22:05.241Z,100742.69
2023-05-09T15:27:08.118Z,100758.53
2023-05-09T15:32:11.266Z,100771.50
2023-05-09T15:37:14.240Z,100779.50
2023-05-09T15:42:17.062Z,100784.09
2023-05-09T15:47:20.031Z,100797.03
2023-05-09T15:52:22.719Z,100805.28
2023-05-09T15:57:26.024Z,100823.03
2023-05-09T16:02:29.452Z,100839.59
2023-05-09T16:07:33.989Z,100849.78
2023-05-09T16:12:38.310Z,100859.34
2023-05-09T16:17:41.639Z,100878.09
2023-05-09T16:22:44.569Z,100872.97
2023-05-09T16:27:47.356Z,100897.00
2023-05-09T16:32:50.239Z,100894.31
2023-05-09T16:37:53.042Z,100930.50
2023-05-09T16:42:56.160Z,100943.00
2023-05-09T16:48:00.750Z,100944.38
2023-05-09T16:53:05.198Z,100956.66
2023-05-09T16:58:08.217Z,100966.09
2023-05-09T17:03:11.174Z,100968.75
2023-05-09T17:08:13.980Z,100979.72
2023-05-09T17:13:16.782Z,100986.22
2023-05-09T17:18:33.060Z,100997.56
2023-05-09T17:23:39.302Z,101002.63
2023-05-09T17:28:42.034Z,101007.28
2023-05-09T17:33:44.818Z,101009.53
2023-05-09T17:38:47.717Z,101017.56
2023-05-09T17:43:52.356Z,101021.44
2023-05-09T17:48:55.468Z,101030.88
2023-05-09T17:53:58.368Z,101036.13
2023-05-09T17:59:01.163Z,101041.91
2023-05-09T18:04:04.078Z,101043.50
2023-05-09T18:09:07.428Z,101051.75
2023-05-09T18:14:10.253Z,101060.94
2023-05-09T18:19:13.250Z,101064.53
2023-05-09T18:24:16.990Z,101065.84
2023-05-09T18:29:20.030Z,101068.53
2023-05-09T18:34:22.886Z,101078.66
2023-05-09T18:39:26.119Z,101078.31
2023-05-09T18:44:30.297Z,101075.09
2023-05-09T18:49:33.108Z,101065.84
2023-05-09T18:54:38.596Z,101080.44
2023-05-09T18:59:41.373Z,101076.31
2023-05-09T19:04:46.497Z,101083.91
2023-05-09T19:09:49.814Z,101092.19
2023-05-09T19:14:52.688Z,101089.66
2023-05-09T19:19:55.609Z,101082.22
2023-05-09T19:24:59.272Z,101085.78
2023-05-09T19:30:02.195Z,101091.75
2023-05-09T19:35:06.146Z,101080.28
2023-05-09T19:40:09.702Z,101113.59
2023-05-09T19:45:12.784Z,101116.53
2023-05-09T19:50:22.240Z,101124.72
2023-05-09T19:55:25.117Z,101121.22
2023-05-09T20:00:28.347Z,101123.91
2023-05-09T20:05:32.849Z,101126.34
2023-05-09T20:10:35.839Z,101133.56
2023-05-09T20:15:39.128Z,101139.06
2023-05-09T20:20:42.657Z,101144.97
2023-05-09T20:25:45.440Z,101145.13
2023-05-09T20:30:48.896Z,101154.91
2023-05-09T20:35:51.749Z,101160.78
2023-05-09T20:40:54.523Z,101168.31
2023-05-09T20:45:57.534Z,101166.16
2023-05-09T20:51:00.771Z,101177.91
2023-05-09T20:56:03.945Z,101182.69
2023-05-09T21:01:06.990Z,101169.00
2023-05-09T21:06:09.873Z,101171.84
2023-05-09T21:11:12.758Z,101176.13
2023-05-09T21:16:15.552Z,101192.25
2023-05-09T21:21:18.578Z,101194.44
2023-05-09T21:26:23.435Z,101194.13
2023-05-09T21:31:27.054Z,101208.69
2023-05-09T21:36:29.972Z,101217.00
2023-05-09T21:41:32.838Z,101223.75
2023-05-09T21:46:36.226Z,101223.09
2023-05-09T21:51:39.279Z,101233.78
2023-05-09T21:56:43.009Z,101228.28
2023-05-09T22:01:46.759Z,101242.19
2023-05-09T22:06:49.650Z,101235.97
2023-05-09T22:11:53.404Z,101253.41
2023-05-09T22:16:56.280Z,101248.38
2023-05-09T22:21:59.484Z,101260.63
2023-05-09T22:27:02.509Z,101267.06
2023-05-09T22:32:08.005Z,101279.25
2023-05-09T22:37:11.095Z,101281.16
2023-05-09T22:42:13.908Z,101286.19
2023-05-09T22:47:16.970Z,101289.59
2023-05-09T22:52:20.005Z,101296.28
2023-05-09T22:57:24.167Z,101309.66
2023-05-09T23:02:27.162Z,101307.97
2023-05-09T23:07:30.133Z,101326.56
2023-05-09T23:12:33.076Z,101323.69
2023-05-09T23:17:35.950Z,101336.94
2023-05-09T23:22:38.950Z,101340.69
2023-05-09T23:27:42.445Z,101340.63
2023-05-09T23:32:45.339Z,101341.94
2023-05-09T23:37:48.167Z,101348.41
2023-05-09T23:42:51.076Z,101350.13
2023-05-09T23:47:54.178Z,101361.09
2023-05-09T23:52:57.000Z,101356.91
2023-05-09T23:58:01.016Z,101368.94
